Time;durP1;ratioP1;P1;durP2;ratioP2;P2;SDS_P1;SDS_P2;PMS_P1;PMS_P2;Temp;Humidity;BMP_temperature;BMP_pressure;BME280_temperature;BME280_humidity;BME280_pressure;Samples;Min_cycle;Max_cycle;Signal;HPM_P1;HPM_P2
2023/07/27 00:02:23;;;;;;;4.00;2.83;;;14.80;99.90;;;;;;5049001;28;20233;-88
2023/07/27 00:04:48;;;;;;;6.03;2.90;;;14.80;99.90;;;;;;5040969;28;20444;-87
2023/07/27 00:07:18;;;;;;;4.97;2.40;;;14.80;99.90;;;;;;5039450;28;20671;-88
2023/07/27 00:09:44;;;;;;;5.13;2.80;;;14.80;99.90;;;;;;5041905;28;20210;-87
2023/07/27 00:12:09;;;;;;;3.07;2.53;;;14.80;99.90;;;;;;5040572;28;20426;-88
2023/07/27 00:14:37;;;;;;;5.80;2.93;;;14.80;99.90;;;;;;5048872;28;20246;-87
2023/07/27 00:17:02;;;;;;;6.50;2.70;;;14.80;99.90;;;;;;5045364;28;20187;-86
2023/07/27 00:19:28;;;;;;;3.70;2.40;;;14.70;99.90;;;;;;5048080;28;20462;-88
2023/07/27 00:21:53;;;;;;;4.93;2.83;;;14.80;99.90;;;;;;5045383;28;20211;-86
2023/07/27 00:24:19;;;;;;;7.10;2.63;;;14.80;99.90;;;;;;5049288;28;20272;-87
2023/07/27 00:26:44;;;;;;;4.57;2.77;;;14.80;99.90;;;;;;5059090;28;20822;-88
2023/07/27 00:29:10;;;;;;;3.50;2.80;;;14.90;99.90;;;;;;5062525;28;20188;-85
2023/07/27 00:31:35;;;;;;;5.13;2.70;;;14.90;99.90;;;;;;5067241;28;20181;-86
2023/07/27 00:34:01;;;;;;;5.00;3.43;;;15.20;99.90;;;;;;5060569;28;20211;-86
2023/07/27 00:36:27;;;;;;;3.77;2.87;;;14.90;99.90;;;;;;5056977;28;20195;-84
2023/07/27 00:38:52;;;;;;;4.33;2.77;;;14.90;99.90;;;;;;5048807;28;20575;-87
2023/07/27 00:41:18;;;;;;;4.83;2.63;;;14.90;99.90;;;;;;5052415;28;20189;-89
2023/07/27 00:43:44;;;;;;;5.17;3.10;;;15.70;99.90;;;;;;5050357;28;20188;-85
2023/07/27 00:46:10;;;;;;;5.63;2.97;;;16.40;99.90;;;;;;5046350;28;20435;-88
2023/07/27 00:48:36;;;;;;;3.13;2.83;;;14.80;99.90;;;;;;5044862;28;20211;-87
2023/07/27 00:51:02;;;;;;;5.50;2.67;;;14.70;99.90;;;;;;5042470;28;20434;-85
2023/07/27 00:53:28;;;;;;;4.87;3.03;;;16.50;99.90;;;;;;5061183;28;20547;-88
2023/07/27 00:55:53;;;;;;;5.07;2.97;;;14.80;99.90;;;;;;5041911;28;20237;-87
2023/07/27 00:58:19;;;;;;;3.97;2.70;;;14.80;99.90;;;;;;5041562;28;20189;-87
2023/07/27 01:00:45;;;;;;;4.90;2.67;;;14.80;99.90;;;;;;5037420;28;21433;-86
2023/07/27 01:03:10;;;;;;;4.13;2.93;;;14.80;99.90;;;;;;5038960;28;20211;-88
2023/07/27 01:05:37;;;;;;;4.73;2.50;;;14.80;99.90;;;;;;5037841;28;20608;-86
2023/07/27 01:08:02;;;;;;;4.87;2.77;;;14.90;99.90;;;;;;5041373;28;21845;-87
2023/07/27 01:10:51;;;;;;;3.70;2.40;;;14.70;99.90;;;;;;5037835;28;20490;-87
2023/07/27 01:13:34;;;;;;;3.90;2.87;;;14.60;99.90;;;;;;4999372;28;20451;-88
2023/07/27 01:16:08;;;;;;;4.87;2.77;;;14.70;99.90;;;;;;5047212;28;20471;-88
2023/07/27 01:18:53;;;;;;;4.13;2.40;;;14.60;99.90;;;;;;5045502;28;20442;-87
2023/07/27 01:21:24;;;;;;;3.77;2.40;;;14.50;99.90;;;;;;5041700;28;20707;-85
2023/07/27 01:24:11;;;;;;;3.80;2.80;;;14.60;99.90;;;;;;5038076;28;20435;-87
2023/07/27 01:27:07;;;;;;;3.67;2.77;;;14.50;99.90;;;;;;5051704;28;20483;-87
2023/07/27 01:29:41;;;;;;;3.13;2.60;;;14.40;99.90;;;;;;5046233;28;20459;-86
2023/07/27 01:32:10;;;;;;;5.80;3.23;;;14.30;99.90;;;;;;5049903;28;20434;-85
2023/07/27 01:34:40;;;;;;;4.60;2.80;;;14.30;99.90;;;;;;5041951;28;20454;-84
2023/07/27 01:37:08;;;;;;;4.07;2.93;;;14.20;99.90;;;;;;5043795;28;20435;-85
2023/07/27 01:39:40;;;;;;;2.80;2.50;;;14.20;99.90;;;;;;5062046;28;20450;-89
2023/07/27 01:42:08;;;;;;;4.80;3.70;;;14.20;99.90;;;;;;5070368;28;20438;-85
2023/07/27 01:44:34;;;;;;;2.67;2.30;;;14.20;99.90;;;;;;5056868;28;20447;-84
2023/07/27 01:47:01;;;;;;;3.60;2.87;;;14.20;99.90;;;;;;5045461;28;20446;-87
2023/07/27 01:49:29;;;;;;;4.40;2.80;;;14.20;99.90;;;;;;5043117;28;20453;-84
2023/07/27 01:51:56;;;;;;;9.33;2.77;;;14.20;99.90;;;;;;5044156;28;20426;-88
2023/07/27 01:54:22;;;;;;;6.77;2.60;;;14.20;99.90;;;;;;5046711;28;20466;-88
2023/07/27 01:56:49;;;;;;;7.70;2.50;;;14.20;99.90;;;;;;5042236;28;20434;-85
2023/07/27 01:59:16;;;;;;;4.43;3.30;;;14.20;99.90;;;;;;5040150;28;20489;-87
2023/07/27 02:01:43;;;;;;;4.70;3.47;;;14.20;99.90;;;;;;5036885;28;20435;-86
2023/07/27 02:04:09;;;;;;;3.50;2.20;;;14.20;99.90;;;;;;5059087;28;20477;-86
2023/07/27 02:06:34;;;;;;;5.37;2.57;;;14.20;99.90;;;;;;5035086;28;20459;-86
2023/07/27 02:09:00;;;;;;;3.50;2.33;;;14.20;99.90;;;;;;5039441;28;20482;-85
2023/07/27 02:11:26;;;;;;;3.80;2.60;;;14.10;99.90;;;;;;5053513;28;20188;-85
2023/07/27 02:14:00;;;;;;;5.93;2.87;;;14.10;99.90;;;;;;5047529;28;20640;-88
2023/07/27 02:16:44;;;;;;;6.67;3.00;;;14.00;99.90;;;;;;5040172;28;20445;-87
2023/07/27 02:19:12;;;;;;;3.83;2.27;;;14.00;99.90;;;;;;5045055;28;20451;-85
2023/07/27 02:21:38;;;;;;;4.63;2.80;;;14.00;99.90;;;;;;5042153;28;20434;-88
2023/07/27 02:24:04;;;;;;;4.93;2.90;;;13.90;99.90;;;;;;5043202;28;20599;-88
2023/07/27 02:26:30;;;;;;;4.47;3.47;;;13.90;99.90;;;;;;5053383;28;20428;-89
2023/07/27 02:28:56;;;;;;;3.60;3.20;;;13.90;99.90;;;;;;5041076;28;21004;-85
2023/07/27 02:31:23;;;;;;;5.80;2.73;;;13.90;99.90;;;;;;5041766;28;21094;-87
2023/07/27 02:33:49;;;;;;;5.90;2.50;;;13.90;99.90;;;;;;5042318;28;20534;-88
2023/07/27 02:36:14;;;;;;;3.40;3.10;;;13.90;99.90;;;;;;5042225;28;20561;-87
2023/07/27 02:38:40;;;;;;;4.07;2.50;;;13.90;99.90;;;;;;5043376;28;20538;-88
2023/07/27 02:41:05;;;;;;;2.60;2.40;;;13.90;99.90;;;;;;5042632;28;20181;-86
2023/07/27 02:43:31;;;;;;;5.67;3.10;;;13.90;99.90;;;;;;5045105;28;20182;-85
2023/07/27 02:45:58;;;;;;;3.50;2.87;;;14.00;99.90;;;;;;5044081;28;20234;-86
2023/07/27 02:48:24;;;;;;;3.13;2.83;;;14.00;99.90;;;;;;5051806;28;20199;-84
2023/07/27 02:50:50;;;;;;;4.80;2.60;;;14.00;99.90;;;;;;5046905;28;20446;-85
2023/07/27 02:53:16;;;;;;;5.10;3.07;;;14.10;99.90;;;;;;5053258;28;20266;-84
2023/07/27 02:55:42;;;;;;;3.90;2.80;;;14.00;99.90;;;;;;5059219;28;20528;-84
2023/07/27 02:58:10;;;;;;;3.90;3.03;;;14.00;99.90;;;;;;5043043;28;20729;-87
2023/07/27 03:00:36;;;;;;;4.80;2.87;;;14.10;99.90;;;;;;5037307;28;20275;-86
2023/07/27 03:03:02;;;;;;;4.43;3.07;;;14.10;99.90;;;;;;5040041;28;20490;-87
2023/07/27 03:05:27;;;;;;;3.23;2.80;;;14.10;99.90;;;;;;5038062;28;20189;-85
2023/07/27 03:07:53;;;;;;;4.37;3.00;;;14.00;99.90;;;;;;5035143;28;20427;-87
2023/07/27 03:10:19;;;;;;;4.33;3.20;;;14.10;99.90;;;;;;5036380;28;20193;-85
2023/07/27 03:12:45;;;;;;;4.43;3.20;;;14.10;99.90;;;;;;5040333;28;20503;-86
2023/07/27 03:15:10;;;;;;;3.97;2.50;;;14.10;99.90;;;;;;5047041;28;20475;-86
2023/07/27 03:17:36;;;;;;;7.83;2.90;;;14.20;99.90;;;;;;5038267;28;20173;-88
2023/07/27 03:20:02;;;;;;;6.73;3.13;;;14.20;99.90;;;;;;5051918;28;20193;-86
2023/07/27 03:22:27;;;;;;;5.60;3.00;;;14.30;99.90;;;;;;5042349;28;20177;-88
2023/07/27 03:24:53;;;;;;;7.03;3.03;;;14.30;99.90;;;;;;5037475;28;20380;-86
2023/07/27 03:27:18;;;;;;;8.43;3.27;;;14.40;99.90;;;;;;5038872;28;20568;-87
2023/07/27 03:29:44;;;;;;;3.40;2.70;;;14.40;99.90;;;;;;5057892;28;20299;-87
2023/07/27 03:32:09;;;;;;;3.70;2.70;;;14.40;99.90;;;;;;5047487;28;20188;-84
2023/07/27 03:34:35;;;;;;;2.70;2.20;;;14.30;99.90;;;;;;5036331;28;20207;-86
2023/07/27 03:37:00;;;;;;;2.73;2.27;;;14.30;99.90;;;;;;5032928;28;20191;-87
2023/07/27 03:39:26;;;;;;;4.10;2.60;;;14.30;99.90;;;;;;5039802;28;20200;-87
2023/07/27 03:41:51;;;;;;;3.80;2.40;;;14.40;99.90;;;;;;5040778;28;20184;-86
2023/07/27 03:44:17;;;;;;;4.23;2.50;;;14.40;99.90;;;;;;5047357;28;20185;-85
2023/07/27 03:46:42;;;;;;;5.13;2.83;;;14.40;99.90;;;;;;5040305;28;20176;-84
2023/07/27 03:49:10;;;;;;;2.47;2.27;;;14.50;99.90;;;;;;5044279;28;20859;-86
2023/07/27 03:51:35;;;;;;;6.53;2.23;;;14.50;99.90;;;;;;5059348;28;20181;-85
2023/07/27 03:54:01;;;;;;;2.83;2.10;;;15.40;99.90;;;;;;5067576;28;20446;-85
2023/07/27 03:56:26;;;;;;;5.10;2.40;;;14.70;99.90;;;;;;5061808;28;20261;-85
2023/07/27 03:58:52;;;;;;;3.70;2.70;;;14.60;99.90;;;;;;5051333;28;20177;-85
2023/07/27 04:01:18;;;;;;;2.73;2.13;;;14.60;99.90;;;;;;5052103;28;20192;-87
2023/07/27 04:03:43;;;;;;;3.00;2.70;;;14.60;99.90;;;;;;5042047;28;20219;-86
2023/07/27 04:06:09;;;;;;;4.93;2.90;;;14.60;99.90;;;;;;5052139;28;20212;-88
2023/07/27 04:08:34;;;;;;;4.30;2.87;;;14.60;99.90;;;;;;5044756;28;20267;-88
2023/07/27 04:10:59;;;;;;;3.00;2.60;;;14.60;99.90;;;;;;5039773;28;20189;-85
2023/07/27 04:13:25;;;;;;;3.50;2.43;;;14.60;99.90;;;;;;5042830;28;20172;-87
2023/07/27 04:15:51;;;;;;;4.10;2.50;;;14.60;99.90;;;;;;5054422;28;20243;-86
2023/07/27 04:18:16;;;;;;;3.97;2.50;;;14.60;99.90;;;;;;5040307;28;20192;-88
2023/07/27 04:20:42;;;;;;;2.80;2.60;;;14.60;99.90;;;;;;5044951;28;20191;-86
2023/07/27 04:23:07;;;;;;;2.23;1.80;;;14.60;99.90;;;;;;5034031;28;20173;-84
2023/07/27 04:25:33;;;;;;;5.50;3.47;;;14.60;99.90;;;;;;5035842;28;20226;-83
2023/07/27 04:27:58;;;;;;;2.40;2.03;;;14.60;99.90;;;;;;5036727;28;20268;-85
2023/07/27 04:30:24;;;;;;;5.53;3.13;;;14.60;99.90;;;;;;5044705;28;20209;-86
2023/07/27 04:32:49;;;;;;;4.63;2.30;;;14.60;99.90;;;;;;5035442;28;20746;-84
2023/07/27 04:35:15;;;;;;;3.63;2.57;;;14.60;99.90;;;;;;5034490;28;20907;-87
2023/07/27 04:37:40;;;;;;;5.03;2.43;;;14.60;99.90;;;;;;5035997;28;20196;-86
2023/07/27 04:40:06;;;;;;;2.67;1.97;;;14.60;99.90;;;;;;5042685;28;20692;-87
2023/07/27 04:42:32;;;;;;;5.57;2.37;;;14.60;99.90;;;;;;5030026;28;20181;-84
2023/07/27 04:44:58;;;;;;;5.90;2.33;;;14.60;99.90;;;;;;5035965;28;21233;-85
2023/07/27 04:47:23;;;;;;;3.33;2.63;;;14.70;99.90;;;;;;5041212;28;20181;-86
2023/07/27 04:49:49;;;;;;;3.13;2.40;;;14.70;99.90;;;;;;5038823;28;20200;-86
2023/07/27 04:52:14;;;;;;;2.40;2.03;;;14.80;99.90;;;;;;5041314;28;20198;-84
2023/07/27 04:54:40;;;;;;;5.10;2.10;;;14.90;99.90;;;;;;5046337;28;20238;-86
2023/07/27 04:57:05;;;;;;;4.80;3.03;;;14.90;99.90;;;;;;5037994;28;20272;-86
2023/07/27 04:59:31;;;;;;;4.13;2.87;;;15.00;99.90;;;;;;5039977;28;20208;-88
2023/07/27 05:01:56;;;;;;;3.90;2.47;;;15.10;99.90;;;;;;5043684;28;20183;-87
2023/07/27 05:04:22;;;;;;;3.00;2.33;;;15.10;99.90;;;;;;5036835;28;20184;-85
2023/07/27 05:06:47;;;;;;;4.70;2.20;;;15.10;99.90;;;;;;5045996;28;20187;-86
2023/07/27 05:09:14;;;;;;;2.80;2.13;;;15.20;99.90;;;;;;5045563;28;20209;-85
2023/07/27 05:11:39;;;;;;;6.40;2.97;;;15.20;99.90;;;;;;5036616;28;20695;-86
2023/07/27 05:14:05;;;;;;;3.40;2.30;;;15.30;99.90;;;;;;5040763;28;20572;-84
2023/07/27 05:16:30;;;;;;;4.57;2.30;;;15.30;99.90;;;;;;5043766;28;20208;-88
2023/07/27 05:18:57;;;;;;;4.10;2.27;;;15.40;99.90;;;;;;5049249;28;20203;-86
2023/07/27 05:21:23;;;;;;;3.90;2.20;;;15.50;99.90;;;;;;5038634;28;20180;-87
2023/07/27 05:23:49;;;;;;;3.60;2.30;;;15.50;99.90;;;;;;5041867;28;20458;-88
2023/07/27 05:26:14;;;;;;;2.93;2.63;;;15.60;99.90;;;;;;5040420;28;20434;-88
2023/07/27 05:28:40;;;;;;;4.57;2.40;;;16.10;99.90;;;;;;5058153;28;20238;-86
2023/07/27 05:31:07;;;;;;;4.37;2.33;;;15.60;99.90;;;;;;5042383;28;20201;-87
2023/07/27 05:33:32;;;;;;;3.63;2.07;;;15.90;99.90;;;;;;5050980;28;20188;-87
2023/07/27 05:35:58;;;;;;;3.80;2.70;;;16.10;99.90;;;;;;5046611;28;20464;-87
2023/07/27 05:38:26;;;;;;;4.40;1.77;;;15.70;99.90;;;;;;5044792;28;20569;-89
2023/07/27 05:40:52;;;;;;;4.30;2.87;;;15.60;99.90;;;;;;5040167;28;20186;-87
2023/07/27 05:43:17;;;;;;;3.00;2.17;;;15.60;99.90;;;;;;5044845;28;20561;-86
2023/07/27 05:45:44;;;;;;;3.37;2.33;;;15.60;99.90;;;;;;5043453;28;20365;-87
2023/07/27 05:48:10;;;;;;;3.00;2.13;;;15.60;99.90;;;;;;5042546;28;20199;-86
2023/07/27 05:50:35;;;;;;;4.10;2.10;;;15.70;99.90;;;;;;5045006;28;20486;-87
2023/07/27 05:53:01;;;;;;;5.50;3.10;;;17.20;99.90;;;;;;5042788;28;20675;-85
2023/07/27 05:55:26;;;;;;;4.20;2.50;;;16.90;99.90;;;;;;5039667;28;20859;-87
2023/07/27 05:57:52;;;;;;;4.93;3.70;;;15.90;99.90;;;;;;5052544;28;20655;-87
2023/07/27 06:00:17;;;;;;;7.67;2.70;;;16.20;99.90;;;;;;5060544;28;20587;-86
2023/07/27 06:02:43;;;;;;;3.03;2.60;;;16.20;99.90;;;;;;5050959;28;20177;-87
2023/07/27 06:05:09;;;;;;;4.10;2.00;;;16.70;99.90;;;;;;5042170;28;20180;-88
2023/07/27 06:07:34;;;;;;;4.73;2.87;;;16.20;99.90;;;;;;5050811;28;20242;-87
2023/07/27 06:10:01;;;;;;;3.60;2.63;;;16.40;99.90;;;;;;5044119;28;20986;-88
2023/07/27 06:12:27;;;;;;;2.90;2.17;;;16.20;99.90;;;;;;5047644;28;20270;-86
2023/07/27 06:14:52;;;;;;;3.43;1.70;;;16.40;99.90;;;;;;5054844;28;20471;-86
2023/07/27 06:17:18;;;;;;;4.77;2.33;;;16.30;99.90;;;;;;5054644;28;20193;-87
2023/07/27 06:19:43;;;;;;;2.87;2.37;;;16.30;99.90;;;;;;5043962;28;20193;-88
2023/07/27 06:22:09;;;;;;;4.20;2.53;;;16.30;99.90;;;;;;5045303;28;20189;-88
2023/07/27 06:24:34;;;;;;;3.80;2.10;;;16.50;99.90;;;;;;5042434;28;20188;-87
2023/07/27 06:27:00;;;;;;;5.30;2.03;;;16.70;99.90;;;;;;5046041;28;20197;-87
2023/07/27 06:29:25;;;;;;;7.60;2.80;;;17.00;99.90;;;;;;5037743;28;20671;-86
2023/07/27 06:31:51;;;;;;;2.53;1.90;;;17.30;99.90;;;;;;5041133;28;20194;-88
2023/07/27 06:34:17;;;;;;;4.63;1.97;;;17.60;99.90;;;;;;5041358;28;20554;-86
2023/07/27 06:36:42;;;;;;;2.77;1.70;;;17.80;99.90;;;;;;5046132;28;20192;-87
2023/07/27 06:39:08;;;;;;;3.90;2.47;;;17.80;99.90;;;;;;5052006;28;20669;-88
2023/07/27 06:41:34;;;;;;;2.93;2.03;;;17.40;99.90;;;;;;5042218;28;20185;-87
2023/07/27 06:44:00;;;;;;;2.43;1.93;;;17.50;99.90;;;;;;5036345;28;20545;-88
2023/07/27 06:46:26;;;;;;;3.23;2.00;;;17.40;99.90;;;;;;5040984;28;20212;-88
2023/07/27 06:48:52;;;;;;;3.80;2.10;;;17.20;99.90;;;;;;5042563;28;20236;-87
2023/07/27 06:51:18;;;;;;;5.73;2.23;;;18.80;99.90;;;;;;5041915;28;20484;-89
2023/07/27 06:53:44;;;;;;;2.40;1.90;;;;;;;;;;5043508;28;22209;-87
2023/07/27 06:56:09;;;;;;;3.30;2.13;;;17.10;99.90;;;;;;5042379;28;20591;-86
2023/07/27 06:58:35;;;;;;;2.40;1.97;;;;;;;;;;5044072;28;20857;-87
2023/07/27 07:01:01;;;;;;;3.20;2.10;;;17.10;99.90;;;;;;5045175;28;20185;-87
2023/07/27 07:03:27;;;;;;;2.13;1.80;;;17.80;99.90;;;;;;5044196;28;20430;-87
2023/07/27 07:05:55;;;;;;;2.13;1.73;;;17.10;99.90;;;;;;5046273;28;20318;-88
2023/07/27 07:08:23;;;;;;;4.13;2.90;;;17.10;99.90;;;;;;5046146;28;20184;-86
2023/07/27 07:10:49;;;;;;;3.50;2.03;;;17.20;99.90;;;;;;5045196;28;20441;-88
2023/07/27 07:13:14;;;;;;;2.50;2.10;;;18.90;99.90;;;;;;5044972;28;20553;-86
2023/07/27 07:15:40;;;;;;;2.97;2.23;;;17.20;99.90;;;;;;5048090;28;20208;-88
2023/07/27 07:18:05;;;;;;;3.40;2.40;;;17.30;99.90;;;;;;5048022;28;20519;-89
2023/07/27 07:20:39;;;;;;;2.40;2.20;;;17.30;99.90;;;;;;5054792;28;20443;-89
2023/07/27 07:23:05;;;;;;;7.03;2.37;;;17.20;99.90;;;;;;5061163;28;20242;-89
2023/07/27 07:25:30;;;;;;;2.57;2.00;;;17.20;99.90;;;;;;5042259;28;20919;-89
2023/07/27 07:27:56;;;;;;;5.23;2.03;;;17.40;99.90;;;;;;5047703;28;20202;-89
2023/07/27 07:30:21;;;;;;;5.93;2.60;;;17.40;99.90;;;;;;5054158;28;20278;-86
2023/07/27 07:32:47;;;;;;;6.00;2.90;;;17.40;99.90;;;;;;5044330;28;20188;-86
2023/07/27 07:35:14;;;;;;;4.03;2.23;;;17.40;99.90;;;;;;5042416;28;20213;-87
2023/07/27 07:37:40;;;;;;;2.83;2.23;;;17.30;99.90;;;;;;5041615;28;20276;-86
2023/07/27 07:40:06;;;;;;;4.20;2.47;;;17.30;99.90;;;;;;5042052;28;20527;-88
2023/07/27 07:42:32;;;;;;;4.67;2.43;;;17.30;99.90;;;;;;5050569;28;20245;-87
2023/07/27 07:44:57;;;;;;;5.10;2.10;;;17.40;99.90;;;;;;5042427;28;20442;-89
2023/07/27 07:47:23;;;;;;;4.40;2.40;;;17.50;99.90;;;;;;5044489;28;20185;-88
2023/07/27 07:49:49;;;;;;;3.00;2.63;;;17.70;99.90;;;;;;5047759;28;20208;-88
2023/07/27 07:52:14;;;;;;;2.77;2.23;;;17.70;99.90;;;;;;5044378;28;20236;-88
2023/07/27 07:54:40;;;;;;;3.70;2.73;;;18.40;99.90;;;;;;5045960;28;20255;-88
2023/07/27 07:57:05;;;;;;;5.00;2.57;;;19.20;99.90;;;;;;5046698;28;20255;-86
2023/07/27 07:59:31;;;;;;;3.30;2.47;;;;;;;;;;5057356;28;20204;-87
2023/07/27 08:01:57;;;;;;;3.20;2.23;;;18.00;99.90;;;;;;5039501;28;20340;-88
2023/07/27 08:04:22;;;;;;;2.60;1.97;;;17.80;99.90;;;;;;5055336;28;20439;-87
2023/07/27 08:06:48;;;;;;;5.00;2.50;;;17.60;99.90;;;;;;5041666;28;20192;-88
2023/07/27 08:09:14;;;;;;;3.57;2.57;;;17.50;99.90;;;;;;5047348;28;20203;-87
2023/07/27 08:11:41;;;;;;;2.20;2.00;;;17.40;99.90;;;;;;5039853;28;20424;-87
2023/07/27 08:14:08;;;;;;;4.90;2.47;;;17.60;99.90;;;;;;5042278;28;21256;-85
2023/07/27 08:16:33;;;;;;;4.70;2.70;;;17.20;99.90;;;;;;5034960;28;20470;-86
2023/07/27 08:18:59;;;;;;;4.37;2.80;;;17.20;99.90;;;;;;5043721;28;20965;-86
2023/07/27 08:21:24;;;;;;;3.90;2.40;;;17.20;99.90;;;;;;5046753;28;20254;-86
2023/07/27 08:23:51;;;;;;;3.70;2.30;;;17.20;99.90;;;;;;5043667;28;20239;-87
2023/07/27 08:26:17;;;;;;;3.27;2.80;;;17.20;99.90;;;;;;5048095;28;20180;-84
2023/07/27 08:28:43;;;;;;;9.13;2.67;;;17.20;99.90;;;;;;5060997;28;20460;-86
2023/07/27 08:31:09;;;;;;;3.50;2.53;;;17.40;99.90;;;;;;5051188;28;20523;-87
2023/07/27 08:33:35;;;;;;;4.67;2.30;;;17.10;99.90;;;;;;5041899;28;22069;-85
2023/07/27 08:36:00;;;;;;;5.70;2.47;;;17.10;99.90;;;;;;5040723;28;20596;-86
2023/07/27 08:38:26;;;;;;;6.40;2.23;;;17.20;99.90;;;;;;5044081;28;20187;-86
2023/07/27 08:40:53;;;;;;;3.47;2.67;;;17.10;99.90;;;;;;5050021;28;20181;-85
2023/07/27 08:43:19;;;;;;;3.20;2.53;;;17.20;99.90;;;;;;5049827;28;20229;-85
2023/07/27 08:45:45;;;;;;;4.77;2.93;;;17.50;99.90;;;;;;5040548;28;20430;-85
2023/07/27 08:48:13;;;;;;;8.03;2.30;;;17.70;99.90;;;;;;5039814;28;20442;-89
2023/07/27 08:50:39;;;;;;;4.00;2.80;;;17.80;99.90;;;;;;5045752;28;20450;-86
2023/07/27 08:53:05;;;;;;;2.33;2.13;;;17.90;99.90;;;;;;5042626;28;20434;-87
2023/07/27 08:55:31;;;;;;;4.33;2.93;;;17.90;99.90;;;;;;5040368;28;20482;-86
2023/07/27 08:57:56;;;;;;;4.23;2.57;;;17.80;99.90;;;;;;5036311;28;20224;-87
2023/07/27 09:00:22;;;;;;;2.50;2.10;;;17.90;99.90;;;;;;5055164;28;20692;-86
2023/07/27 09:02:47;;;;;;;3.63;2.50;;;17.70;99.90;;;;;;5053510;28;20181;-85
2023/07/27 09:05:13;;;;;;;14.30;3.00;;;17.80;99.90;;;;;;5038553;28;20210;-86
2023/07/27 09:07:39;;;;;;;4.23;2.20;;;17.90;99.90;;;;;;5053952;28;20200;-86
2023/07/27 09:10:09;;;;;;;3.40;2.50;;;17.80;99.90;;;;;;5035580;28;20220;-87
2023/07/27 09:12:35;;;;;;;4.70;2.97;;;17.80;99.90;;;;;;5050379;28;20469;-86
2023/07/27 09:15:10;;;;;;;2.90;2.67;;;17.70;99.90;;;;;;5037004;28;20595;-86
2023/07/27 09:17:36;;;;;;;8.87;3.47;;;17.90;99.90;;;;;;5042924;28;20426;-88
2023/07/27 09:20:02;;;;;;;9.90;2.90;;;17.80;99.90;;;;;;5039998;28;20470;-88
2023/07/27 09:22:28;;;;;;;4.37;2.80;;;17.80;99.90;;;;;;5053217;28;20192;-86
2023/07/27 09:24:56;;;;;;;3.17;2.80;;;17.90;99.90;;;;;;5035323;28;20864;-86
2023/07/27 09:27:22;;;;;;;4.30;2.93;;;17.90;99.90;;;;;;5051101;28;20181;-86
2023/07/27 09:29:56;;;;;;;5.03;2.73;;;18.20;99.90;;;;;;5054309;28;20485;-87
2023/07/27 09:32:22;;;;;;;2.90;2.07;;;17.90;99.90;;;;;;5043576;28;20268;-86
2023/07/27 09:34:55;;;;;;;5.37;3.43;;;18.00;99.90;;;;;;5043194;28;20486;-88
2023/07/27 09:37:22;;;;;;;10.83;3.13;;;17.90;99.90;;;;;;5043753;28;20439;-87
2023/07/27 09:39:48;;;;;;;4.27;3.17;;;17.80;99.90;;;;;;5036685;28;20458;-88
2023/07/27 09:42:15;;;;;;;5.03;2.70;;;17.80;99.90;;;;;;5052151;28;20485;-87
2023/07/27 09:44:52;;;;;;;5.47;3.17;;;17.80;99.90;;;;;;5038537;28;20435;-87
2023/07/27 09:47:20;;;;;;;4.43;2.83;;;17.60;99.90;;;;;;5052356;28;20475;-87
2023/07/27 09:49:49;;;;;;;4.63;2.70;;;17.70;99.90;;;;;;5050075;28;20464;-88
2023/07/27 09:52:17;;;;;;;3.10;2.43;;;17.90;99.90;;;;;;5030904;28;20434;-87
2023/07/27 09:54:48;;;;;;;4.00;2.90;;;18.00;99.90;;;;;;5047026;28;20483;-89
2023/07/27 09:57:15;;;;;;;3.77;2.30;;;18.10;99.90;;;;;;5038455;28;20858;-87
2023/07/27 09:59:42;;;;;;;3.60;2.83;;;18.40;99.90;;;;;;5039463;28;20571;-88
2023/07/27 10:02:07;;;;;;;3.57;2.83;;;18.90;99.90;;;;;;5046108;28;20442;-86
2023/07/27 10:04:33;;;;;;;4.67;2.63;;;19.60;99.90;;;;;;5043581;28;20426;-88
2023/07/27 10:06:58;;;;;;;3.27;2.97;;;19.90;99.90;;;;;;5042089;28;20661;-84
2023/07/27 10:09:24;;;;;;;3.43;2.50;;;20.00;99.90;;;;;;5039874;28;20339;-85
2023/07/27 10:11:56;;;;;;;2.37;2.17;;;20.20;99.90;;;;;;5036171;28;20192;-85
2023/07/27 10:14:25;;;;;;;7.43;2.50;;;19.90;99.90;;;;;;5054192;28;20208;-86
2023/07/27 10:17:03;;;;;;;3.27;2.83;;;20.00;99.90;;;;;;5040082;28;20452;-87
2023/07/27 10:19:44;;;;;;;4.67;2.53;;;20.40;99.90;;;;;;5052260;28;20465;-87
2023/07/27 10:22:15;;;;;;;4.67;2.53;;;19.90;99.90;;;;;;5035682;28;20533;-86
2023/07/27 10:24:56;;;;;;;5.57;2.93;;;19.90;99.90;;;;;;5036744;28;21848;-85
2023/07/27 10:27:23;;;;;;;3.20;2.57;;;20.20;99.90;;;;;;5028976;28;20449;-86
2023/07/27 10:30:11;;;;;;;4.67;3.47;;;20.40;99.90;;;;;;5033058;28;20467;-86
2023/07/27 10:32:37;;;;;;;5.50;2.47;;;20.30;99.90;;;;;;5034314;28;20981;-86
2023/07/27 10:35:07;;;;;;;4.80;2.03;;;20.30;99.90;;;;;;5035736;28;20471;-87
2023/07/27 10:37:53;;;;;;;4.20;2.77;;;20.10;99.90;;;;;;5030482;28;20457;-85
2023/07/27 10:40:26;;;;;;;2.90;2.27;;;19.70;99.90;;;;;;5052224;28;20486;-84
2023/07/27 10:42:56;;;;;;;5.37;2.63;;;19.60;99.90;;;;;;5035741;28;20478;-85
2023/07/27 10:45:26;;;;;;;7.60;2.70;;;20.00;99.90;;;;;;5050965;28;20435;-86
2023/07/27 10:47:56;;;;;;;3.40;2.33;;;20.30;99.90;;;;;;5040526;28;20665;-86
2023/07/27 10:50:22;;;;;;;4.27;2.10;;;20.50;99.90;;;;;;5039305;28;20446;-86
2023/07/27 10:52:52;;;;;;;4.87;2.67;;;20.90;99.90;;;;;;5057865;28;20954;-87
2023/07/27 10:55:19;;;;;;;3.37;3.07;;;21.20;99.90;;;;;;5045315;28;20220;-87
2023/07/27 10:57:48;;;;;;;4.80;2.50;;;21.60;99.90;;;;;;5040736;28;20485;-87
2023/07/27 11:00:14;;;;;;;9.17;2.10;;;22.20;99.90;;;;;;5042032;28;20462;-85
2023/07/27 11:02:44;;;;;;;3.40;2.23;;;22.80;99.90;;;;;;5045247;28;20431;-86
2023/07/27 11:05:12;;;;;;;6.57;3.00;;;22.80;99.90;;;;;;5056510;28;20557;-86
2023/07/27 11:07:40;;;;;;;3.83;2.20;;;23.20;99.90;;;;;;5033953;28;20473;-86
2023/07/27 11:10:13;;;;;;;4.03;2.37;;;23.20;99.90;;;;;;5034587;28;20541;-87
2023/07/27 11:12:51;;;;;;;2.40;2.13;;;23.60;99.90;;;;;;5047501;28;20951;-84
2023/07/27 11:15:20;;;;;;;3.30;1.80;;;24.20;99.90;;;;;;5030141;28;20466;-86
2023/07/27 11:17:45;;;;;;;3.07;2.00;;;24.50;99.90;;;;;;5032153;28;20443;-84
2023/07/27 11:20:12;;;;;;;4.07;2.23;;;23.50;99.90;;;;;;5038464;28;20459;-86
2023/07/27 11:22:47;;;;;;;5.27;1.87;;;23.40;99.90;;;;;;5058172;28;20203;-83
2023/07/27 11:25:12;;;;;;;4.20;2.70;;;23.40;99.90;;;;;;5044296;28;21330;-84
2023/07/27 11:27:38;;;;;;;9.53;2.27;;;24.00;99.90;;;;;;5039746;28;20467;-83
2023/07/27 11:30:07;;;;;;;3.50;2.57;;;24.20;99.90;;;;;;5040454;28;20234;-84
2023/07/27 11:32:33;;;;;;;3.10;2.20;;;23.70;99.90;;;;;;5042958;28;20192;-86
2023/07/27 11:34:58;;;;;;;6.57;2.80;;;23.80;99.90;;;;;;5038293;28;20475;-86
2023/07/27 11:37:26;;;;;;;6.60;2.60;;;23.30;99.90;;;;;;5038544;28;20178;-87
2023/07/27 11:39:52;;;;;;;8.10;2.80;;;23.20;99.90;;;;;;5034143;28;20212;-86
2023/07/27 11:42:30;;;;;;;3.87;2.53;;;23.40;99.90;;;;;;5054524;28;20438;-85
2023/07/27 11:44:56;;;;;;;7.90;2.87;;;23.20;99.90;;;;;;5033915;28;20204;-86
2023/07/27 11:47:23;;;;;;;3.00;2.27;;;23.30;99.90;;;;;;5041933;28;20502;-85
2023/07/27 11:49:55;;;;;;;3.30;1.63;;;22.90;99.90;;;;;;5036012;28;20454;-85
2023/07/27 11:52:21;;;;;;;4.73;2.60;;;22.90;99.90;;;;;;5039205;28;20446;-87
2023/07/27 11:54:52;;;;;;;3.10;2.33;;;22.90;99.90;;;;;;5036419;28;20811;-87
2023/07/27 11:57:18;;;;;;;5.03;2.60;;;22.80;99.90;;;;;;5051190;28;20177;-84
2023/07/27 12:00:12;;;;;;;3.17;2.40;;;22.50;99.90;;;;;;5043136;28;20449;-85
2023/07/27 12:02:44;;;;;;;3.90;2.83;;;22.20;99.90;;;;;;5036537;28;20427;-87
2023/07/27 12:05:17;;;;;;;3.80;2.10;;;21.80;99.90;;;;;;5040894;28;20484;-86
2023/07/27 12:07:43;;;;;;;2.40;2.17;;;21.30;99.90;;;;;;5059907;28;20461;-87
2023/07/27 12:10:20;;;;;;;2.80;2.40;;;21.20;99.90;;;;;;5040695;28;20838;-86
2023/07/27 12:12:59;;;;;;;2.80;2.43;;;21.00;99.90;;;;;;5039585;28;20463;-86
2023/07/27 12:15:30;;;;;;;2.80;2.20;;;20.60;99.90;;;;;;5047195;28;20484;-86
2023/07/27 12:17:58;;;;;;;5.83;2.57;;;20.50;99.90;;;;;;5059567;28;20452;-82
2023/07/27 12:20:25;;;;;;;2.57;2.00;;;;;;;;;;5039258;28;20466;-86
2023/07/27 12:22:50;;;;;;;3.10;2.50;;;19.70;99.90;;;;;;5046581;28;20952;-84
2023/07/27 12:25:17;;;;;;;3.93;2.13;;;19.60;99.90;;;;;;5051064;28;20442;-84
2023/07/27 12:27:43;;;;;;;5.57;3.00;;;19.60;99.90;;;;;;5038916;28;20180;-85
2023/07/27 12:30:09;;;;;;;3.70;2.13;;;19.50;99.90;;;;;;5045632;28;20593;-87
2023/07/27 12:32:35;;;;;;;3.50;2.40;;;19.60;99.90;;;;;;5042983;28;20195;-86
2023/07/27 12:35:03;;;;;;;2.40;2.20;;;19.50;99.90;;;;;;5036547;28;20496;-85
2023/07/27 12:37:29;;;;;;;3.47;2.47;;;19.40;99.90;;;;;;5037923;28;21000;-86
2023/07/27 12:39:55;;;;;;;3.67;2.30;;;19.40;99.90;;;;;;5042740;28;20442;-86
2023/07/27 12:42:20;;;;;;;8.10;2.93;;;19.60;99.90;;;;;;5038909;28;20450;-84
2023/07/27 12:44:46;;;;;;;2.83;2.60;;;19.70;99.90;;;;;;5031498;28;20192;-83
2023/07/27 12:47:11;;;;;;;3.43;2.03;;;20.30;99.90;;;;;;5032646;28;20196;-85
2023/07/27 12:49:37;;;;;;;4.33;2.87;;;20.50;99.90;;;;;;5040376;28;21426;-84